createdAt,value
2023-04-02T16:05:01.587Z,940.00
2023-04-02T16:10:01.553Z,920.00
2023-04-02T16:15:01.489Z,864.00
2023-04-02T16:20:02.421Z,788.00
2023-04-02T16:25:01.358Z,732.00
2023-04-02T16:30:01.310Z,740.00
2023-04-02T16:35:15.221Z,728.00
2023-04-02T16:40:02.232Z,700.00
2023-04-02T16:45:01.034Z,708.00
2023-04-02T16:50:01.902Z,660.00
2023-04-02T16:55:00.996Z,620.00
2023-04-02T17:00:00.858Z,560.00
2023-04-02T17:05:00.828Z,472.00
2023-04-02T17:10:00.763Z,412.00
2023-04-02T17:15:00.708Z,348.00
2023-04-02T17:20:00.661Z,284.00
2023-04-02T17:25:00.545Z,232.00
2023-04-02T17:30:00.665Z,184.00
2023-04-02T17:35:00.416Z,148.00
2023-04-02T17:40:00.396Z,124.00
2023-04-02T17:45:00.265Z,104.00
2023-04-02T17:50:00.228Z,88.00
2023-04-02T17:55:00.164Z,60.00
2023-04-02T18:00:00.202Z,40.00
2023-04-02T18:05:00.017Z,28.00
2023-04-02T18:09:59.973Z,16.00
2023-04-02T18:14:59.887Z,8.00
2023-04-02T18:19:59.853Z,4.00
2023-04-02T18:24:59.782Z,0.00
2023-04-02T18:29:59.708Z,4.00
2023-04-02T18:34:59.630Z,0.00
2023-04-02T18:39:59.557Z,0.00
2023-04-02T18:44:59.533Z,0.00
2023-04-02T18:49:59.442Z,0.00
2023-04-02T18:54:59.396Z,0.00
2023-04-02T18:59:59.345Z,0.00
2023-04-02T19:04:59.264Z,0.00
2023-04-02T19:09:59.195Z,0.00
2023-04-02T19:14:59.095Z,0.00
2023-04-02T19:19:59.038Z,0.00
2023-04-02T19:24:59.025Z,0.00
2023-04-02T19:29:58.913Z,0.00
2023-04-02T19:34:58.895Z,0.00
2023-04-02T19:39:58.808Z,0.00
2023-04-02T19:44:58.712Z,0.00
2023-04-02T19:49:58.698Z,0.00
2023-04-02T19:54:58.580Z,0.00
2023-04-02T19:59:58.542Z,0.00
2023-04-02T20:04:58.439Z,0.00
2023-04-02T20:09:59.376Z,0.00
2023-04-02T20:14:58.335Z,0.00
2023-04-02T20:19:58.259Z,0.00
2023-04-02T20:24:58.174Z,0.00
2023-04-02T20:29:58.122Z,0.00
2023-04-02T20:34:58.034Z,0.00
2023-04-02T20:39:57.989Z,0.00
2023-04-02T20:44:57.939Z,0.00
2023-04-02T20:49:57.922Z,0.00
2023-04-02T20:54:57.800Z,0.00
2023-04-02T20:59:57.730Z,0.00
2023-04-02T21:04:57.690Z,0.00
2023-04-02T21:09:57.751Z,0.00
2023-04-02T21:14:57.869Z,0.00
2023-04-02T21:19:57.476Z,0.00
2023-04-02T21:24:57.389Z,0.00
2023-04-02T21:29:57.356Z,0.00
2023-04-02T21:34:57.394Z,0.00
2023-04-02T21:39:57.218Z,0.00
2023-04-02T21:44:57.120Z,0.00
2023-04-02T21:49:57.082Z,0.00
2023-04-02T21:54:56.980Z,0.00
2023-04-02T21:59:57.913Z,0.00
2023-04-02T22:04:56.864Z,0.00
2023-04-02T22:09:56.803Z,0.00
2023-04-02T22:14:56.759Z,0.00
2023-04-02T22:19:56.712Z,0.00
2023-04-02T22:24:56.609Z,0.00
2023-04-02T22:29:56.528Z,0.00
2023-04-02T22:34:56.457Z,0.00
2023-04-02T22:39:56.379Z,0.00
2023-04-02T22:44:56.484Z,0.00
2023-04-02T22:49:56.276Z,0.00
2023-04-02T22:54:56.202Z,0.00
2023-04-02T22:59:56.144Z,0.00
2023-04-02T23:04:56.082Z,0.00
2023-04-02T23:09:56.905Z,0.00
2023-04-02T23:14:55.968Z,0.00
2023-04-02T23:19:55.887Z,0.00
2023-04-02T23:24:56.591Z,0.00
2023-04-02T23:29:55.764Z,0.00
2023-04-02T23:34:55.681Z,0.00
2023-04-02T23:39:55.607Z,0.00
2023-04-02T23:44:55.563Z,0.00
2023-04-02T23:49:55.492Z,0.00
2023-04-02T23:54:55.382Z,0.00
2023-04-02T23:59:55.381Z,0.00
